createdAt,value
2023-06-10T00:14:52.542Z,12.73
2023-06-10T00:19:26.649Z,13.17
2023-06-10T00:32:47.711Z,12.17
2023-06-10T00:36:51.079Z,12.47
2023-06-10T01:01:47.818Z,11.87
2023-06-10T01:05:52.612Z,12.53
2023-06-10T01:10:18.953Z,13.30
2023-06-10T02:27:49.689Z,12.37
2023-06-10T02:32:17.483Z,13.37
2023-06-10T02:36:32.261Z,13.30
2023-06-10T02:40:53.221Z,12.47
2023-06-10T02:45:11.121Z,13.60
2023-06-10T02:49:15.623Z,13.47
2023-06-10T02:58:35.369Z,12.30
2023-06-10T03:02:43.810Z,12.63
2023-06-10T03:24:18.198Z,12.43
2023-06-10T03:28:52.782Z,11.90
2023-06-10T03:33:31.948Z,10.73
2023-06-10T03:37:36.666Z,11.40
2023-06-10T03:41:51.654Z,10.90
2023-06-10T03:45:58.831Z,11.17
2023-06-10T03:55:54.526Z,10.57
2023-06-10T04:16:22.576Z,12.50
2023-06-10T04:20:32.575Z,12.02
2023-06-10T04:25:20.904Z,12.35
2023-06-10T04:29:35.707Z,12.25
2023-06-10T04:33:42.136Z,11.68
2023-06-10T04:38:29.270Z,12.13
2023-06-10T05:04:36.308Z,11.63
2023-06-10T05:09:09.238Z,11.20
2023-06-10T05:14:06.339Z,11.77
2023-06-10T05:19:02.449Z,12.02
2023-06-10T05:48:12.318Z,11.20
2023-06-10T05:52:22.709Z,11.68
2023-06-10T05:56:27.781Z,11.43
2023-06-10T06:32:00.370Z,9.45
2023-06-10T06:36:22.417Z,9.07
2023-06-10T06:40:32.172Z,8.57
2023-06-10T06:44:56.255Z,8.30
2023-06-10T06:49:07.385Z,7.90
2023-06-10T06:58:19.084Z,11.55
2023-06-10T07:02:31.989Z,7.00
2023-06-10T07:06:38.795Z,7.47
2023-06-10T07:10:40.931Z,7.50
2023-06-10T07:14:42.939Z,8.05
2023-06-10T07:18:45.006Z,7.05
2023-06-10T07:22:50.740Z,8.20
2023-06-10T07:26:52.766Z,7.40
2023-06-10T07:30:57.322Z,6.97
2023-06-10T07:35:01.551Z,7.68
2023-06-10T07:39:03.730Z,8.27
2023-06-10T07:43:08.583Z,7.30
2023-06-10T07:47:10.795Z,10.15
2023-06-10T07:51:12.717Z,7.85
2023-06-10T07:55:14.750Z,8.70
2023-06-10T07:59:19.293Z,8.32
2023-06-10T08:03:21.330Z,7.85
2023-06-10T08:07:26.708Z,8.25
2023-06-10T08:11:29.475Z,8.32
2023-06-10T08:15:31.424Z,8.52
2023-06-10T08:19:35.935Z,8.25
2023-06-10T08:23:37.874Z,7.60
2023-06-10T08:27:56.928Z,7.65
2023-06-10T08:32:10.155Z,7.80
2023-06-10T08:36:21.069Z,7.22
2023-06-10T08:40:34.181Z,8.18
2023-06-10T08:49:30.410Z,7.40
2023-06-10T08:53:36.993Z,8.38
2023-06-10T08:57:39.114Z,7.75
2023-06-10T09:01:47.031Z,7.90
2023-06-10T09:06:04.775Z,8.07
2023-06-10T09:10:10.867Z,7.97
2023-06-10T09:15:18.317Z,8.00
2023-06-10T09:19:33.644Z,8.25
2023-06-10T09:24:05.564Z,8.32
2023-06-10T09:28:17.150Z,8.05
2023-06-10T09:32:49.458Z,7.65
2023-06-10T09:52:29.653Z,7.72
2023-06-10T10:02:25.906Z,7.13
2023-06-10T10:06:53.160Z,7.53
2023-06-10T10:11:29.119Z,7.22
2023-06-10T10:15:44.642Z,6.85
2023-06-10T10:31:32.691Z,7.50
2023-06-10T11:12:52.104Z,7.57
2023-06-10T11:16:57.374Z,7.75
2023-06-10T11:21:00.927Z,7.78
2023-06-10T11:25:02.871Z,9.05
2023-06-10T11:29:11.011Z,7.38
2023-06-10T11:33:29.148Z,6.82
2023-06-10T11:37:33.387Z,7.38
2023-06-10T11:41:36.306Z,7.22
2023-06-10T11:45:38.319Z,7.35
2023-06-10T11:49:46.432Z,7.70
2023-06-10T11:54:01.132Z,7.50
2023-06-10T11:58:33.929Z,7.72
2023-06-10T12:02:38.334Z,8.32
2023-06-10T12:06:50.160Z,7.57
2023-06-10T12:10:54.439Z,6.60
2023-06-10T12:15:37.625Z,7.38
2023-06-10T12:19:41.847Z,6.38
2023-06-10T12:24:01.818Z,6.78
2023-06-10T12:28:03.975Z,7.30
2023-06-10T12:32:10.129Z,7.25
2023-06-10T12:36:17.648Z,6.57
2023-06-10T12:40:19.496Z,6.80
2023-06-10T12:44:35.543Z,7.05
2023-06-10T12:48:39.547Z,6.95
2023-06-10T12:52:42.255Z,7.18
2023-06-10T12:56:47.210Z,6.75
2023-06-10T13:01:32.835Z,7.07
2023-06-10T13:05:38.489Z,6.90
2023-06-10T13:09:43.358Z,8.00
2023-06-10T13:13:45.225Z,7.63
2023-06-10T13:17:51.192Z,7.65
2023-06-10T13:22:42.022Z,7.05
2023-06-10T13:27:09.361Z,6.68
2023-06-10T13:31:24.115Z,6.82
2023-06-10T13:35:43.671Z,7.18
2023-06-10T13:39:53.920Z,6.63
2023-06-10T13:44:02.634Z,6.32
2023-06-10T13:48:07.515Z,6.13
2023-06-10T13:52:09.790Z,6.32
2023-06-10T14:00:29.795Z,5.40
2023-06-10T14:04:31.621Z,5.50
2023-06-10T14:08:33.588Z,5.10
2023-06-10T14:12:36.085Z,5.07
2023-06-10T14:16:39.606Z,5.63
2023-06-10T14:20:42.945Z,6.10
2023-06-10T14:24:44.754Z,5.57
2023-06-10T14:28:51.696Z,5.75
2023-06-10T14:32:53.653Z,6.18
2023-06-10T14:36:58.778Z,5.53
2023-06-10T14:46:43.265Z,7.65
2023-06-10T14:51:01.344Z,5.32
2023-06-10T14:55:56.905Z,6.75
2023-06-10T15:06:00.254Z,6.38
2023-06-10T15:14:44.978Z,6.65
2023-06-10T15:18:58.184Z,7.45
2023-06-10T15:28:28.335Z,7.20
2023-06-10T15:32:30.668Z,8.25
2023-06-10T15:36:32.713Z,7.70
2023-06-10T15:40:37.367Z,7.57
2023-06-10T15:44:39.466Z,11.27
2023-06-10T15:48:43.574Z,7.72
2023-06-10T15:52:47.863Z,8.10
2023-06-10T16:01:12.071Z,7.68
2023-06-10T16:10:41.461Z,7.40
2023-06-10T16:14:43.245Z,7.60
2023-06-10T16:18:47.564Z,7.93
2023-06-10T16:22:49.543Z,8.07
2023-06-10T16:26:51.419Z,7.28
2023-06-10T16:30:53.398Z,7.15
2023-06-10T16:34:56.534Z,7.95
2023-06-10T16:39:00.972Z,8.02
2023-06-10T16:43:02.790Z,6.80
2023-06-10T16:47:10.297Z,7.57
2023-06-10T16:51:19.796Z,7.32
2023-06-10T16:55:35.342Z,6.82
2023-06-10T16:59:37.259Z,7.25
2023-06-10T17:03:39.357Z,6.88
2023-06-10T17:07:41.336Z,8.15
2023-06-10T17:11:43.612Z,7.05
2023-06-10T17:15:45.493Z,7.22
2023-06-10T17:19:50.935Z,7.03
2023-06-10T17:23:58.514Z,7.50
2023-06-10T17:28:14.531Z,7.50
2023-06-10T17:32:20.663Z,7.25
2023-06-10T17:36:22.617Z,7.13
2023-06-10T20:00:24.646Z,17.30
2023-06-10T20:04:26.556Z,17.67
2023-06-10T20:08:28.483Z,19.13
2023-06-10T20:13:01.035Z,19.33
2023-06-10T20:17:11.199Z,20.47
2023-06-10T20:21:20.929Z,20.90
2023-06-10T20:25:23.503Z,22.63
2023-06-10T20:29:27.243Z,21.70
2023-06-10T20:33:28.952Z,22.60
2023-06-10T20:37:34.380Z,20.43
2023-06-10T20:41:36.298Z,19.80
2023-06-10T20:45:38.579Z,21.03
2023-06-10T20:49:40.441Z,18.37
2023-06-10T20:53:42.180Z,21.10
2023-06-10T21:03:21.662Z,19.03
2023-06-10T21:07:28.683Z,17.17
2023-06-10T21:11:30.881Z,19.57
2023-06-10T21:15:39.967Z,18.90
2023-06-10T21:19:41.842Z,19.87
2023-06-10T21:23:43.658Z,19.97
2023-06-10T21:27:48.221Z,21.20
2023-06-10T21:31:50.272Z,20.27
2023-06-10T21:35:52.109Z,19.57
2023-06-10T21:39:54.128Z,19.67
2023-06-10T21:43:59.035Z,17.73
2023-06-10T21:48:08.477Z,17.43
2023-06-10T21:52:10.372Z,16.73
2023-06-10T21:56:13.261Z,17.30
2023-06-10T22:00:15.646Z,15.87
2023-06-10T22:04:17.514Z,16.80
2023-06-10T22:08:19.356Z,14.67
2023-06-10T22:12:21.103Z,14.27
2023-06-10T22:16:22.833Z,14.97
2023-06-10T22:20:24.703Z,13.63
2023-06-10T22:24:26.441Z,11.67
2023-06-10T22:28:28.188Z,11.00
2023-06-10T22:32:29.925Z,11.93
2023-06-10T22:36:31.793Z,10.70
2023-06-10T22:40:33.662Z,10.43
2023-06-10T22:44:35.905Z,10.90
2023-06-10T22:48:37.715Z,9.93
2023-06-10T22:52:39.666Z,10.00
2023-06-10T22:56:41.480Z,9.53
2023-06-10T23:00:43.412Z,10.00
2023-06-10T23:04:45.811Z,10.40
2023-06-10T23:08:47.635Z,9.10
2023-06-10T23:12:49.381Z,9.00
2023-06-10T23:16:52.088Z,9.37
2023-06-10T23:20:54.731Z,9.23
2023-06-10T23:24:57.548Z,10.07
2023-06-10T23:28:59.428Z,9.23
2023-06-10T23:33:01.368Z,9.80
2023-06-10T23:37:05.363Z,10.73
2023-06-10T23:41:07.149Z,10.03
2023-06-10T23:45:09.729Z,9.97
2023-06-10T23:49:11.914Z,9.93
2023-06-10T23:53:13.722Z,10.37
2023-06-10T23:57:15.510Z,10.00
